Time;durP1;ratioP1;P1;durP2;ratioP2;P2;SDS_P1;SDS_P2;PMS_P1;PMS_P2;Temp;Humidity;BMP_temperature;BMP_pressure;BME280_temperature;BME280_humidity;BME280_pressure;Samples;Min_cycle;Max_cycle;Signal;HPM_P1;HPM_P2
2022/11/24 00:01:11;;;;;;;96.63;14.27;;;;;;;7.81;92.13;95446.84;5134458;27;20096;-62
2022/11/24 00:03:38;;;;;;;277.10;14.82;;;;;;;7.80;94.06;95443.41;5134489;27;20047;-62
2022/11/24 00:06:07;;;;;;;363.17;16.20;;;;;;;7.85;96.19;95443.19;5134243;27;20054;-62
2022/11/24 00:08:36;;;;;;;160.45;14.07;;;;;;;7.90;96.08;95454.25;5134388;27;20051;-63
2022/11/24 00:11:06;;;;;;;148.30;13.30;;;;;;;7.91;96.27;95448.13;5134321;27;20055;-63
2022/11/24 00:13:33;;;;;;;43.08;12.18;;;;;;;7.93;96.17;95445.47;5134239;27;20047;-62
2022/11/24 00:16:11;;;;;;;22.83;11.57;;;;;;;7.97;94.64;95449.63;5133931;27;20054;-62
2022/11/24 00:18:39;;;;;;;16.23;11.32;;;;;;;7.86;92.60;95449.25;5134220;27;20050;-62
2022/11/24 00:21:08;;;;;;;19.45;12.23;;;;;;;7.65;92.69;95444.09;5134195;27;20507;-62
2022/11/24 00:23:37;;;;;;;27.13;12.13;;;;;;;7.56;94.78;95455.75;5134091;27;20054;-62
2022/11/24 00:26:07;;;;;;;24.35;12.93;;;;;;;7.61;96.58;95450.34;5134054;27;20062;-63
2022/11/24 00:28:35;;;;;;;23.63;13.30;;;;;;;7.61;96.87;95443.38;5133887;27;20051;-62
2022/11/24 00:31:05;;;;;;;27.67;14.18;;;;;;;7.69;97.50;95450.84;5134243;27;20047;-62
2022/11/24 00:33:32;;;;;;;25.05;13.63;;;;;;;7.83;97.17;95447.66;5134141;27;20077;-61
2022/11/24 00:36:00;;;;;;;16.83;11.25;;;;;;;7.89;94.38;95451.72;5134084;27;20079;-62
2022/11/24 00:38:27;;;;;;;18.23;11.93;;;;;;;7.86;93.94;95446.66;5134012;27;20078;-62
2022/11/24 00:40:56;;;;;;;15.20;10.95;;;;;;;7.84;94.86;95446.72;5133894;27;20051;-61
2022/11/24 00:43:23;;;;;;;19.67;11.50;;;;;;;7.87;94.86;95438.78;5134005;27;20047;-62
2022/11/24 00:45:50;;;;;;;15.90;11.27;;;;;;;7.87;93.64;95441.38;5133798;27;20083;-62
2022/11/24 00:48:18;;;;;;;16.40;10.35;;;;;;;7.92;92.88;95434.19;5133848;27;20138;-62
2022/11/24 00:50:55;;;;;;;13.85;9.73;;;;;;;7.91;92.15;95437.72;5133810;27;20047;-61
2022/11/24 00:53:22;;;;;;;17.50;10.80;;;;;;;7.90;91.74;95429.97;5133869;27;20051;-62
2022/11/24 00:55:50;;;;;;;13.68;9.40;;;;;;;7.86;91.62;95438.84;5133719;27;20047;-62
2022/11/24 00:58:19;;;;;;;13.70;9.98;;;;;;;7.90;91.71;95436.03;5133849;27;20080;-62
2022/11/24 01:00:46;;;;;;;18.73;10.10;;;;;;;7.90;92.52;95441.25;5133728;27;20047;-62
2022/11/24 01:03:15;;;;;;;13.00;9.73;;;;;;;7.91;92.19;95431.66;5133727;27;20134;-62
2022/11/24 01:05:42;;;;;;;16.08;10.50;;;;;;;7.88;91.82;95440.47;5133772;27;20055;-62
2022/11/24 01:08:10;;;;;;;18.15;10.27;;;;;;;7.89;91.41;95441.31;5133735;27;20046;-62
2022/11/24 01:10:37;;;;;;;10.98;7.90;;;;;;;7.87;89.32;95448.34;5133715;27;20074;-61
2022/11/24 01:13:05;;;;;;;12.82;7.43;;;;;;;7.74;88.23;95450.66;5133551;27;20047;-62
2022/11/24 01:15:35;;;;;;;11.32;8.13;;;;;;;7.66;88.12;95450.97;5133419;27;20051;-62
2022/11/24 01:18:03;;;;;;;21.13;7.28;;;;;;;7.59;87.44;95456.44;5133568;27;20050;-62
2022/11/24 01:20:30;;;;;;;14.80;7.28;;;;;;;7.56;86.82;95463.56;5133474;27;20050;-62
2022/11/24 01:22:58;;;;;;;11.70;7.32;;;;;;;7.50;87.34;95450.81;5133624;27;20096;-62
2022/11/24 01:25:25;;;;;;;16.83;7.63;;;;;;;7.47;88.43;95449.19;5133524;27;20044;-62
2022/11/24 01:27:53;;;;;;;9.18;8.18;;;;;;;7.48;88.65;95448.28;5133504;27;20477;-62
2022/11/24 01:30:22;;;;;;;15.93;7.32;;;;;;;7.51;88.72;95442.94;5133514;27;20446;-62
2022/11/24 01:32:51;;;;;;;39.97;8.93;;;;;;;7.51;88.54;95442.06;5133368;27;20043;-63
2022/11/24 01:35:18;;;;;;;37.92;10.38;;;;;;;7.51;89.33;95444.69;5133484;27;20107;-62
2022/11/24 01:37:45;;;;;;;25.80;10.85;;;;;;;7.57;89.76;95447.03;5133431;27;20492;-63
2022/11/24 01:40:13;;;;;;;21.10;10.52;;;;;;;7.63;89.96;95456.31;5133758;27;20054;-62
2022/11/24 01:42:46;;;;;;;72.13;9.70;;;;;;;7.66;89.42;95449.22;5137015;27;20043;-62
2022/11/24 01:45:35;;;;;;;231.25;12.40;;;;;;;7.57;90.99;95450.47;5137043;27;20051;-62
2022/11/24 01:48:07;;;;;;;189.90;12.93;;;;;;;7.54;91.34;95449.75;5136883;27;20096;-62
2022/11/24 01:50:36;;;;;;;286.77;14.18;;;;;;;7.59;92.27;95445.22;5136920;27;20562;-63
2022/11/24 01:53:05;;;;;;;372.20;15.45;;;;;;;7.64;92.31;95445.84;5136935;27;20047;-62
2022/11/24 01:55:38;;;;;;;244.15;14.35;;;;;;;7.66;92.10;95448.38;5136848;27;20042;-62
2022/11/24 01:58:07;;;;;;;78.25;11.90;;;;;;;7.69;92.23;95451.69;5136799;27;20518;-62
2022/11/24 02:00:36;;;;;;;66.40;12.55;;;;;;;7.71;92.47;95444.66;5136670;27;20093;-62
2022/11/24 02:03:05;;;;;;;25.48;12.20;;;;;;;7.78;92.38;95447.84;5136644;27;20039;-62
2022/11/24 02:05:40;;;;;;;46.42;11.10;;;;;;;7.83;92.24;95445.88;5136500;27;20418;-62
2022/11/24 02:08:14;;;;;;;19.98;10.63;;;;;;;7.84;91.87;95444.97;5136617;27;20571;-62
2022/11/24 02:10:42;;;;;;;21.23;10.23;;;;;;;7.92;91.82;95454.19;5136561;27;20050;-62
2022/11/24 02:13:09;;;;;;;15.82;10.13;;;;;;;7.95;91.56;95454.06;5136497;27;20382;-61
2022/11/24 02:15:37;;;;;;;21.98;11.60;;;;;;;7.99;91.46;95457.34;5136215;27;20043;-62
2022/11/24 02:18:05;;;;;;;20.10;11.63;;;;;;;8.03;91.38;95451.94;5136365;27;20050;-62
2022/11/24 02:20:34;;;;;;;20.88;10.80;;;;;;;8.03;91.22;95451.09;5136356;27;20082;-62
2022/11/24 02:23:09;;;;;;;19.20;10.93;;;;;;;8.02;91.21;95452.88;5136275;27;20043;-62
2022/11/24 02:25:44;;;;;;;25.13;10.90;;;;;;;8.02;91.07;95452.88;5136100;27;20082;-61
2022/11/24 02:28:17;;;;;;;15.95;9.45;;;;;;;8.04;90.93;95451.03;5136195;27;20083;-62
2022/11/24 02:30:45;;;;;;;19.35;10.80;;;;;;;8.06;90.72;95448.34;5136082;27;20492;-62
2022/11/24 02:33:13;;;;;;;15.60;10.60;;;;;;;8.01;90.67;95442.53;5136076;27;20068;-61
2022/11/24 02:35:41;;;;;;;16.58;11.05;;;;;;;8.02;90.70;95449.41;5136021;27;20454;-61
2022/11/24 02:38:11;;;;;;;17.65;10.23;;;;;;;7.98;90.83;95448.72;5136064;27;20077;-62
2022/11/24 02:40:40;;;;;;;23.10;10.38;;;;;;;8.00;90.81;95446.03;5136006;27;20082;-61
2022/11/24 02:43:12;;;;;;;15.50;10.48;;;;;;;7.94;90.14;95447.16;5135843;27;20051;-62
2022/11/24 02:45:41;;;;;;;28.08;14.48;;;;;;;7.90;91.58;95450.81;5135746;27;20047;-62
2022/11/24 02:48:08;;;;;;;18.00;11.00;;;;;;;8.00;92.36;95441.66;5135781;27;20053;-62
2022/11/24 02:50:35;;;;;;;17.73;10.52;;;;;;;8.03;91.27;95443.28;5135673;27;20528;-62
2022/11/24 02:53:03;;;;;;;16.00;10.18;;;;;;;8.02;90.62;95439.00;5135667;27;20043;-62
2022/11/24 02:55:30;;;;;;;24.80;12.23;;;;;;;8.02;90.33;95446.81;5135618;27;20616;-62
2022/11/24 02:57:57;;;;;;;17.13;9.90;;;;;;;8.05;90.28;95444.91;5135630;27;20043;-62
2022/11/24 03:00:24;;;;;;;13.18;9.52;;;;;;;8.10;90.20;95447.31;5135697;27;20473;-61
2022/11/24 03:02:53;;;;;;;17.58;10.48;;;;;;;8.12;90.25;95444.66;5135446;27;20557;-61
2022/11/24 03:05:20;;;;;;;16.05;10.25;;;;;;;8.15;89.97;95444.47;5135422;27;20050;-62
2022/11/24 03:07:48;;;;;;;16.75;10.55;;;;;;;8.18;89.82;95441.72;5135409;27;20074;-62
2022/11/24 03:10:15;;;;;;;18.85;9.50;;;;;;;8.21;89.37;95445.06;5135308;27;20589;-62
2022/11/24 03:12:42;;;;;;;18.67;10.57;;;;;;;8.20;89.37;95443.38;5135341;27;20039;-61
2022/11/24 03:15:10;;;;;;;19.40;11.35;;;;;;;8.19;89.71;95436.44;5135298;27;20047;-61
2022/11/24 03:17:37;;;;;;;15.45;9.85;;;;;;;8.22;89.65;95438.91;5135015;27;20054;-61
2022/11/24 03:20:08;;;;;;;28.15;10.73;;;;;;;8.20;89.66;95442.53;5135079;27;20051;-62
2022/11/24 03:22:35;;;;;;;22.80;13.23;;;;;;;8.23;90.12;95450.19;5135069;27;20528;-62
2022/11/24 03:25:02;;;;;;;21.08;12.18;;;;;;;8.24;90.75;95444.06;5135063;27;20123;-61
2022/11/24 03:27:30;;;;;;;19.30;12.35;;;;;;;8.29;91.06;95454.28;5134958;27;20130;-62
2022/11/24 03:29:58;;;;;;;28.13;15.20;;;;;;;8.27;91.69;95449.13;5134966;27;20377;-62
2022/11/24 03:32:25;;;;;;;17.75;12.05;;;;;;;8.32;91.84;95449.78;5135026;27;20082;-62
2022/11/24 03:34:53;;;;;;;20.98;12.35;;;;;;;8.34;91.41;95444.50;5134903;27;20054;-62
2022/11/24 03:37:21;;;;;;;23.92;12.02;;;;;;;8.36;91.11;95445.25;5134799;27;20083;-62
2022/11/24 03:39:49;;;;;;;16.25;10.82;;;;;;;8.39;90.87;95449.47;5134745;27;20047;-62
2022/11/24 03:42:16;;;;;;;15.38;10.70;;;;;;;8.40;90.51;95453.78;5134791;27;20071;-62
2022/11/24 03:44:43;;;;;;;14.43;9.48;;;;;;;8.39;90.13;95455.53;5134776;27;20434;-62
2022/11/24 03:47:12;;;;;;;21.10;10.88;;;;;;;8.41;89.83;95464.13;5134587;27;20065;-63
2022/11/24 03:49:40;;;;;;;19.70;10.13;;;;;;;8.40;89.21;95466.81;5134596;27;20129;-63
2022/11/24 03:52:09;;;;;;;13.65;9.80;;;;;;;8.40;88.40;95466.81;5134653;27;20122;-62
2022/11/24 03:54:37;;;;;;;19.23;10.93;;;;;;;8.37;88.51;95465.16;5134532;27;20134;-62
2022/11/24 03:57:05;;;;;;;20.52;12.68;;;;;;;8.34;88.50;95467.94;5134382;27;20551;-62
2022/11/24 03:59:32;;;;;;;18.63;11.52;;;;;;;8.34;89.36;95466.16;5134493;27;20043;-62
2022/11/24 04:01:59;;;;;;;18.27;12.43;;;;;;;8.36;89.06;95467.88;5134445;27;20136;-62
2022/11/24 04:04:26;;;;;;;19.27;11.63;;;;;;;8.34;88.67;95468.78;5133900;27;20051;-62
2022/11/24 04:06:53;;;;;;;15.77;10.13;;;;;;;8.28;88.60;95469.06;5134222;27;20150;-62
2022/11/24 04:09:20;;;;;;;17.85;11.18;;;;;;;8.22;88.19;95467.56;5134338;27;20075;-62
2022/11/24 04:14:33;;;;;;;17.77;12.52;;;;;;;8.18;87.62;95465.19;5134445;27;20137;-62
2022/11/24 04:17:00;;;;;;;20.45;10.40;;;;;;;8.12;86.96;95471.53;5133999;27;20122;-63
2022/11/24 04:19:27;;;;;;;15.68;9.77;;;;;;;7.97;85.83;95475.66;5134060;27;20484;-62
2022/11/24 04:21:55;;;;;;;15.13;10.25;;;;;;;7.89;86.07;95477.75;5134217;27;20059;-62
2022/11/24 04:24:22;;;;;;;16.88;9.82;;;;;;;7.81;85.92;95481.56;5134130;27;20043;-63
2022/11/24 04:26:51;;;;;;;17.15;9.82;;;;;;;7.68;85.76;95485.59;5133926;27;20100;-62
2022/11/24 04:29:19;;;;;;;22.77;12.98;;;;;;;7.66;86.28;95495.22;5133988;27;20049;-62
2022/11/24 04:31:49;;;;;;;20.00;11.65;;;;;;;7.71;87.10;95493.28;5134037;27;20104;-62
2022/11/24 04:34:17;;;;;;;28.98;10.55;;;;;;;7.73;86.79;95496.66;5134091;27;20050;-62
2022/11/24 04:36:44;;;;;;;60.30;12.70;;;;;;;7.56;86.13;95494.78;5133896;27;20055;-62
2022/11/24 04:39:11;;;;;;;71.75;14.63;;;;;;;7.55;87.08;95498.28;5133972;27;20069;-62
2022/11/24 04:41:38;;;;;;;37.00;12.88;;;;;;;7.54;87.45;95499.19;5133880;27;20047;-62
2022/11/24 04:44:07;;;;;;;100.18;14.88;;;;;;;7.52;87.67;95499.25;5133951;27;20442;-62
2022/11/24 04:46:34;;;;;;;85.30;12.98;;;;;;;7.57;88.29;95499.06;5133997;27;20125;-62
2022/11/24 04:49:02;;;;;;;65.68;13.95;;;;;;;7.60;87.91;95493.75;5133929;27;20105;-62
2022/11/24 04:51:30;;;;;;;61.53;14.65;;;;;;;7.59;87.90;95492.88;5133847;27;20051;-62
2022/11/24 04:53:58;;;;;;;46.95;15.27;;;;;;;7.59;88.33;95502.47;5133843;27;20039;-62
2022/11/24 04:56:25;;;;;;;73.95;14.73;;;;;;;7.66;88.78;95501.28;5133836;27;20130;-62
2022/11/24 04:58:52;;;;;;;43.08;14.35;;;;;;;7.71;88.39;95504.53;5133842;27;20043;-62
2022/11/24 05:01:23;;;;;;;138.43;17.02;;;;;;;7.72;88.56;95505.38;5133771;27;20049;-62
2022/11/24 05:03:53;;;;;;;449.48;20.42;;;;;;;7.69;89.55;95511.56;5133665;27;20047;-62
2022/11/24 05:06:20;;;;;;;545.30;20.95;;;;;;;7.62;91.06;95514.50;5133663;27;20134;-62
2022/11/24 05:08:48;;;;;;;607.15;24.85;;;;;;;7.65;91.71;95517.78;5133742;27;20039;-62
2022/11/24 05:11:16;;;;;;;383.98;18.17;;;;;;;7.61;91.91;95523.22;5133694;27;20043;-62
2022/11/24 05:13:44;;;;;;;549.72;21.48;;;;;;;7.61;92.12;95526.66;5133704;27;20047;-62
2022/11/24 05:16:12;;;;;;;440.38;17.98;;;;;;;7.59;92.50;95524.13;5135186;27;20051;-62
2022/11/24 05:18:41;;;;;;;424.52;16.48;;;;;;;7.61;92.24;95525.84;5137602;27;20450;-62
2022/11/24 05:21:08;;;;;;;453.90;16.52;;;;;;;7.52;92.82;95524.44;5137724;27;20048;-62
2022/11/24 05:23:37;;;;;;;395.08;16.33;;;;;;;7.55;92.87;95525.16;5137572;27;20039;-61
2022/11/24 05:26:06;;;;;;;367.40;14.80;;;;;;;7.54;92.86;95523.47;5137300;27;20043;-62
2022/11/24 05:28:33;;;;;;;293.45;12.98;;;;;;;7.46;92.54;95526.41;5137321;27;20550;-61
2022/11/24 05:31:01;;;;;;;253.65;12.25;;;;;;;7.33;92.06;95528.69;5137283;27;20043;-62
2022/11/24 05:33:32;;;;;;;242.70;11.13;;;;;;;7.27;91.93;95535.88;5137278;27;20078;-62
2022/11/24 05:36:04;;;;;;;143.25;7.80;;;;;;;7.22;92.01;95537.81;5137244;27;20051;-61
2022/11/24 05:38:32;;;;;;;224.05;10.63;;;;;;;7.14;92.19;95538.13;5137100;27;20047;-61
2022/11/24 05:41:03;;;;;;;75.93;8.77;;;;;;;7.11;91.49;95541.72;5137017;27;20039;-61
2022/11/24 05:43:31;;;;;;;34.95;8.45;;;;;;;7.01;90.85;95535.19;5137094;27;20043;-61
2022/11/24 05:46:00;;;;;;;52.63;8.43;;;;;;;6.93;90.11;95538.91;5137032;27;20043;-61
2022/11/24 05:48:27;;;;;;;68.35;7.82;;;;;;;6.79;89.55;95536.88;5136825;27;20047;-62
2022/11/24 05:50:57;;;;;;;63.92;6.88;;;;;;;6.69;89.70;95548.53;5136933;27;20434;-61
2022/11/24 05:53:25;;;;;;;82.05;8.95;;;;;;;6.68;90.32;95549.41;5136956;27;20051;-62
2022/11/24 05:55:53;;;;;;;63.97;11.15;;;;;;;6.75;90.81;95550.91;5136783;27;20460;-62
2022/11/24 05:58:21;;;;;;;43.30;7.40;;;;;;;6.81;90.33;95545.44;5136827;27;20043;-61
2022/11/24 06:00:48;;;;;;;139.20;10.40;;;;;;;6.84;89.88;95547.09;5136732;27;20043;-62
2022/11/24 06:03:16;;;;;;;124.68;10.63;;;;;;;6.90;89.19;95548.59;5136632;27;20043;-62
2022/11/24 06:05:47;;;;;;;14.13;6.88;;;;;;;6.94;88.02;95557.97;5136682;27;20044;-61
2022/11/24 06:08:14;;;;;;;;;;;;;;;7.05;87.80;95554.94;5137126;27;20051;-61
2022/11/24 06:10:42;;;;;;;9.05;6.93;;;;;;;7.23;86.96;95558.56;5136443;27;19987;-62
2022/11/24 06:13:09;;;;;;;6.85;5.93;;;;;;;7.57;85.96;95557.19;5136601;27;20061;-62
2022/11/24 06:15:37;;;;;;;7.10;5.40;;;;;;;7.88;83.22;95556.78;5136529;27;20074;-61
2022/11/24 06:18:04;;;;;;;8.15;5.45;;;;;;;8.01;82.05;95564.94;5136469;27;20053;-62
2022/11/24 06:20:31;;;;;;;11.25;6.15;;;;;;;8.03;81.43;95563.94;5136385;27;20086;-61
2022/11/24 06:22:59;;;;;;;9.23;5.47;;;;;;;8.06;80.84;95570.75;5136329;27;20043;-62
2022/11/24 06:25:26;;;;;;;9.07;5.72;;;;;;;8.04;80.47;95573.44;5136243;27;20066;-62
2022/11/24 06:27:55;;;;;;;5.80;4.70;;;;;;;8.04;80.56;95570.00;5135747;27;20086;-61
2022/11/24 06:30:22;;;;;;;8.15;5.32;;;;;;;8.02;80.73;95572.66;5136081;27;20061;-62
2022/11/24 06:32:54;;;;;;;11.30;5.38;;;;;;;8.00;80.79;95569.28;5136030;27;20079;-62
2022/11/24 06:35:21;;;;;;;27.83;6.03;;;;;;;8.01;81.30;95565.75;5136145;27;20047;-62
2022/11/24 06:37:48;;;;;;;67.15;6.18;;;;;;;8.00;81.74;95565.84;5136113;27;20062;-62
2022/11/24 06:40:15;;;;;;;28.45;5.68;;;;;;;8.01;82.72;95573.56;5136034;27;20086;-62
2022/11/24 06:42:42;;;;;;;69.20;5.45;;;;;;;8.53;82.93;95568.72;5136047;27;20134;-62
2022/11/24 06:45:11;;;;;;;49.95;5.40;;;;;;;9.63;78.51;95578.38;5135983;27;20049;-62
2022/11/24 06:47:38;;;;;;;10.50;3.28;;;;;;;10.90;73.33;95574.56;5135797;27;20062;-62
2022/11/24 06:50:08;;;;;;;5.72;3.50;;;;;;;12.18;69.03;95567.38;5135863;27;20043;-62
2022/11/24 06:52:35;;;;;;;6.43;3.10;;;;;;;13.12;64.53;95576.50;5135799;27;20043;-62
2022/11/24 06:55:02;;;;;;;3.63;3.13;;;;;;;14.10;61.45;95574.59;5135664;27;20039;-62
2022/11/24 06:57:30;;;;;;;4.68;3.55;;;;;;;15.13;57.59;95577.25;5135742;27;20046;-62
2022/11/24 06:59:58;;;;;;;4.28;3.88;;;;;;;16.37;53.41;95584.91;5135503;27;20439;-62
2022/11/24 07:02:28;;;;;;;5.43;3.20;;;;;;;17.78;50.15;95590.66;5135425;27;20450;-62
2022/11/24 07:04:55;;;;;;;4.13;3.20;;;;;;;18.82;46.54;95586.47;5135556;27;20047;-62
2022/11/24 07:07:22;;;;;;;2.85;2.65;;;;;;;20.00;43.99;95585.03;5135393;27;20043;-62
2022/11/24 07:09:50;;;;;;;2.80;2.50;;;;;;;21.31;41.64;95589.72;5135432;27;20074;-63
2022/11/24 07:12:17;;;;;;;5.00;2.90;;;;;;;22.36;40.19;95590.19;5135318;27;20051;-64
2022/11/24 07:14:45;;;;;;;3.38;3.03;;;;;;;22.93;37.84;95588.06;5135269;27;20096;-63
2022/11/24 07:17:12;;;;;;;3.58;3.17;;;;;;;22.33;38.85;95593.16;5135095;27;20051;-63
2022/11/24 07:19:40;;;;;;;7.82;3.53;;;;;;;21.71;39.17;95594.78;5135337;27;20446;-62
2022/11/24 07:22:07;;;;;;;4.20;3.80;;;;;;;21.19;40.26;95594.41;5135202;27;20043;-62
2022/11/24 07:24:34;;;;;;;12.02;4.13;;;;;;;20.06;42.04;95590.66;5135187;27;20039;-62
2022/11/24 07:27:01;;;;;;;6.80;4.20;;;;;;;18.73;45.26;95601.34;5135085;27;20070;-62
2022/11/24 07:29:28;;;;;;;4.45;4.05;;;;;;;18.30;47.72;95601.38;5134966;27;20488;-62
2022/11/24 07:31:56;;;;;;;4.28;3.67;;;;;;;18.98;46.66;95593.06;5134961;27;20043;-62
2022/11/24 07:34:23;;;;;;;4.82;4.22;;;;;;;20.32;43.05;95592.69;5134950;27;20043;-63
2022/11/24 07:36:52;;;;;;;4.50;3.78;;;;;;;21.63;39.60;95590.22;5135080;27;20047;-62
2022/11/24 07:39:19;;;;;;;4.22;3.80;;;;;;;22.59;38.72;95585.22;5134094;27;20399;-62
2022/11/24 07:41:46;;;;;;;4.47;3.58;;;;;;;23.47;36.58;95587.81;5134821;27;20047;-63
2022/11/24 07:44:13;;;;;;;4.18;3.78;;;;;;;24.34;35.66;95585.75;5134751;27;20070;-63
2022/11/24 07:46:40;;;;;;;3.83;3.50;;;;;;;25.39;33.77;95592.16;5134704;27;20071;-63
2022/11/24 07:49:07;;;;;;;3.47;3.17;;;;;;;25.57;33.09;95595.44;5134588;27;20572;-63
2022/11/24 07:51:35;;;;;;;3.65;3.35;;;;;;;26.09;31.77;95595.78;5134719;27;20079;-62
2022/11/24 07:54:04;;;;;;;4.22;3.72;;;;;;;26.39;31.61;95599.59;5134582;27;20412;-62
2022/11/24 07:56:32;;;;;;;3.63;3.33;;;;;;;26.53;31.49;95598.81;5134555;27;20500;-63
2022/11/24 07:58:59;;;;;;;4.25;3.85;;;;;;;26.55;31.50;95595.94;5134511;27;20043;-62
2022/11/24 08:01:26;;;;;;;3.63;3.33;;;;;;;26.54;31.36;95596.94;5134458;27;20079;-63
2022/11/24 08:03:54;;;;;;;4.28;3.60;;;;;;;26.51;31.53;95597.31;5134502;27;20553;-62
2022/11/24 08:06:21;;;;;;;3.83;3.35;;;;;;;26.36;31.65;95596.25;5134425;27;20039;-63
2022/11/24 08:08:48;;;;;;;4.82;3.13;;;;;;;26.50;31.29;95599.16;5134514;27;20146;-62
2022/11/24 08:11:18;;;;;;;5.68;4.60;;;;;;;26.48;31.01;95603.84;5134312;27;20055;-63
2022/11/24 08:13:45;;;;;;;6.38;4.00;;;;;;;26.98;30.63;95598.03;5134334;27;20100;-62
2022/11/24 08:16:15;;;;;;;4.30;3.90;;;;;;;26.36;31.42;95604.31;5133942;27;20043;-62
2022/11/24 08:18:42;;;;;;;4.13;3.50;;;;;;;26.05;31.48;95601.66;5134201;27;20130;-62
2022/11/24 08:21:12;;;;;;;3.95;3.53;;;;;;;26.04;31.64;95598.19;5134275;27;20125;-62
2022/11/24 08:23:40;;;;;;;4.88;3.78;;;;;;;25.76;31.88;95592.50;5134171;27;20093;-62
2022/11/24 08:26:09;;;;;;;4.80;3.55;;;;;;;25.09;32.89;95582.94;5134081;27;20509;-62
2022/11/24 08:28:38;;;;;;;4.72;3.50;;;;;;;24.61;33.61;95586.38;5133979;27;20051;-62
2022/11/24 08:31:07;;;;;;;4.32;3.70;;;;;;;23.94;35.36;95585.56;5134009;27;20047;-62
2022/11/24 08:33:35;;;;;;;4.70;3.45;;;;;;;23.42;35.97;95573.28;5134051;27;20083;-62
2022/11/24 08:36:07;;;;;;;4.93;3.08;;;;;;;22.62;37.68;95589.41;5134065;27;20051;-62
2022/11/24 08:38:34;;;;;;;7.05;3.78;;;;;;;21.37;40.51;95596.25;5134157;27;20051;-62
2022/11/24 08:41:02;;;;;;;6.35;3.75;;;;;;;20.46;42.70;95595.88;5134046;27;20044;-62
2022/11/24 08:43:30;;;;;;;3.80;3.40;;;;;;;19.67;44.82;95593.25;5134045;27;20099;-62
2022/11/24 08:46:01;;;;;;;6.22;4.22;;;;;;;18.96;47.69;95590.56;5133971;27;20155;-62
2022/11/24 08:48:29;;;;;;;4.93;4.35;;;;;;;18.50;48.02;95593.56;5133934;27;20051;-62
2022/11/24 08:50:56;;;;;;;4.70;4.20;;;;;;;18.00;49.94;95595.00;5137445;27;20096;-62
2022/11/24 08:53:24;;;;;;;5.80;4.35;;;;;;;17.71;50.42;95597.44;5138037;27;20449;-62
2022/11/24 08:55:52;;;;;;;5.55;4.65;;;;;;;17.26;50.02;95594.78;5138066;27;20478;-61
2022/11/24 08:58:19;;;;;;;8.60;4.50;;;;;;;17.01;51.33;95588.78;5137975;27;20047;-61
2022/11/24 09:00:46;;;;;;;5.15;4.32;;;;;;;16.77;51.56;95584.47;5137920;27;20107;-62
2022/11/24 09:03:15;;;;;;;4.95;4.32;;;;;;;16.77;51.92;95583.66;5137927;27;20107;-61
2022/11/24 09:05:42;;;;;;;5.93;4.15;;;;;;;16.50;53.47;95588.28;5137785;27;20420;-62
2022/11/24 09:08:09;;;;;;;6.20;4.85;;;;;;;16.39;54.55;95590.94;5137680;27;20200;-62
2022/11/24 09:10:37;;;;;;;8.07;4.93;;;;;;;16.34;54.33;95580.72;5137748;27;20449;-62
2022/11/24 09:13:04;;;;;;;5.00;4.22;;;;;;;16.32;53.46;95590.56;5137725;27;20071;-62
2022/11/24 09:15:31;;;;;;;6.70;4.65;;;;;;;16.13;55.23;95585.84;5137862;27;20147;-62
2022/11/24 09:17:58;;;;;;;4.97;4.00;;;;;;;15.98;54.56;95580.75;5137482;27;20063;-62
2022/11/24 09:20:27;;;;;;;7.78;5.03;;;;;;;16.00;55.73;95581.50;5137592;27;20120;-62
2022/11/24 09:22:54;;;;;;;12.52;5.30;;;;;;;15.96;55.72;95581.81;5137624;27;20544;-62
2022/11/24 09:25:22;;;;;;;5.22;4.15;;;;;;;15.83;57.31;95580.09;5137525;27;20069;-62
2022/11/24 09:27:49;;;;;;;5.45;4.15;;;;;;;15.72;56.54;95577.41;5137419;27;20504;-62
2022/11/24 09:30:17;;;;;;;7.53;5.57;;;;;;;15.85;56.52;95574.69;5137428;27;20047;-62
2022/11/24 09:32:44;;;;;;;5.82;3.95;;;;;;;15.92;56.47;95578.56;5137506;27;20084;-62
2022/11/24 09:35:11;;;;;;;4.63;3.72;;;;;;;15.84;54.95;95579.16;5137538;27;20047;-62
2022/11/24 09:37:42;;;;;;;4.57;4.10;;;;;;;15.87;56.37;95575.44;5137296;27;20099;-62
2022/11/24 09:40:12;;;;;;;4.70;3.42;;;;;;;16.01;55.10;95574.41;5137214;27;20062;-62
2022/11/24 09:42:44;;;;;;;4.90;3.47;;;;;;;16.02;54.64;95570.84;5137176;27;20078;-62
2022/11/24 09:45:31;;;;;;;7.07;3.70;;;;;;;16.07;55.13;95559.94;5137111;27;20047;-62
2022/11/24 09:48:04;;;;;;;5.10;3.47;;;;;;;16.15;53.81;95563.69;5136960;27;20075;-61
2022/11/24 09:50:33;;;;;;;3.75;3.35;;;;;;;16.23;53.49;95555.19;5137011;27;20083;-62
2022/11/24 09:53:09;;;;;;;4.00;3.08;;;;;;;16.29;51.55;95561.78;5136940;27;20489;-62
2022/11/24 09:55:42;;;;;;;6.43;3.20;;;;;;;16.12;52.31;95556.00;5137045;27;20039;-64
2022/11/24 09:58:31;;;;;;;3.95;2.97;;;;;;;16.16;51.95;95565.34;5136901;27;20083;-63
2022/11/24 10:00:59;;;;;;;4.88;2.53;;;;;;;16.34;51.73;95569.34;5135918;27;20086;-62
2022/11/24 10:03:33;;;;;;;3.13;2.60;;;;;;;16.38;51.04;95560.22;5136812;27;20068;-62
2022/11/24 10:06:06;;;;;;;3.50;2.50;;;;;;;16.66;50.26;95558.09;5136696;27;20119;-62
2022/11/24 10:09:17;;;;;;;2.90;2.33;;;;;;;16.65;49.64;95545.84;5136671;27;20055;-62
2022/11/24 10:11:55;;;;;;;5.95;2.05;;;;;;;16.60;48.75;95548.84;5111720;27;20084;-62
2022/11/24 10:14:42;;;;;;;3.40;2.17;;;;;;;16.63;49.29;95551.25;5136597;27;20499;-62
2022/11/24 10:17:18;;;;;;;4.20;2.28;;;;;;;16.76;48.43;95537.91;5136198;27;20116;-62
2022/11/24 10:19:50;;;;;;;4.40;2.92;;;;;;;16.82;47.73;95538.41;5136484;27;20062;-62
2022/11/24 10:22:32;;;;;;;3.90;2.15;;;;;;;16.84;46.81;95553.16;5136379;27;20263;-62
2022/11/24 10:25:09;;;;;;;4.30;2.42;;;;;;;16.45;48.29;95563.22;5136315;27;20062;-62
2022/11/24 10:27:43;;;;;;;2.97;2.60;;;;;;;15.88;50.17;95558.66;5136381;27;20050;-62
2022/11/24 10:30:16;;;;;;;6.65;3.30;;;;;;;15.24;51.67;95569.41;5136172;27;20076;-61
2022/11/24 10:32:47;;;;;;;5.15;3.50;;;;;;;15.02;53.13;95568.31;5136249;27;20096;-62
2022/11/24 10:35:18;;;;;;;7.32;3.78;;;;;;;14.71;53.62;95582.78;5136135;27;20039;-62
2022/11/24 10:37:54;;;;;;;3.90;3.13;;;;;;;14.23;53.91;95579.84;5136006;27;20044;-62
2022/11/24 10:40:29;;;;;;;3.38;2.70;;;;;;;13.91;55.13;95582.88;5136018;27;20130;-62
2022/11/24 10:42:57;;;;;;;4.72;3.08;;;;;;;13.45;54.57;95579.66;5135950;27;20051;-61
2022/11/24 10:45:28;;;;;;;4.95;3.03;;;;;;;13.03;55.27;95590.19;5135889;27;20556;-61
2022/11/24 10:47:55;;;;;;;;;;;;;;;12.73;56.09;95586.78;5136319;27;20450;-61
2022/11/24 10:50:24;;;;;;;3.83;3.17;;;;;;;12.53;56.76;95590.63;5135861;27;19963;-61
2022/11/24 10:53:00;;;;;;;3.38;2.70;;;;;;;12.51;57.86;95593.34;5135818;27;20159;-62
2022/11/24 10:55:49;;;;;;;3.83;2.85;;;;;;;12.24;57.56;95586.22;5135826;27;20039;-61
2022/11/24 10:58:25;;;;;;;3.35;3.05;;;;;;;11.83;60.00;95590.31;5135468;27;20103;-61
2022/11/24 11:00:52;;;;;;;5.70;3.53;;;;;;;11.73;62.64;95595.25;5135677;27;20103;-61
2022/11/24 11:03:21;;;;;;;5.55;3.20;;;;;;;11.44;64.26;95586.44;5135633;27;20480;-61
2022/11/24 11:05:52;;;;;;;4.13;3.55;;;;;;;11.07;65.39;95594.56;5135420;27;20072;-61
2022/11/24 11:08:23;;;;;;;5.45;3.78;;;;;;;10.79;67.89;95594.31;5135419;27;20054;-61
2022/11/24 11:10:52;;;;;;;4.35;3.95;;;;;;;10.58;68.26;95589.31;5135519;27;20047;-62
2022/11/24 11:13:26;;;;;;;5.63;4.18;;;;;;;10.40;69.97;95593.69;5135318;27;20051;-62
2022/11/24 11:15:54;;;;;;;4.97;3.80;;;;;;;10.32;69.10;95598.47;5135080;27;20138;-62
2022/11/24 11:18:25;;;;;;;5.78;3.97;;;;;;;10.29;70.42;95599.47;5135319;27;20047;-63
2022/11/24 11:20:54;;;;;;;5.30;4.47;;;;;;;10.23;72.72;95599.78;5135315;27;20043;-63
2022/11/24 11:23:26;;;;;;;6.63;4.10;;;;;;;10.14;73.72;95601.13;5135120;27;20092;-62
2022/11/24 11:26:17;;;;;;;4.78;3.95;;;;;;;9.99;72.48;95593.16;5135261;27;20411;-62
2022/11/24 11:28:57;;;;;;;5.32;3.67;;;;;;;9.80;73.37;95592.38;5135091;27;20132;-62
2022/11/24 11:31:24;;;;;;;4.32;3.60;;;;;;;9.67;73.83;95602.59;5135008;27;20077;-62
2022/11/24 11:33:56;;;;;;;5.25;3.95;;;;;;;9.71;75.22;95597.16;5134889;27;20039;-62
2022/11/24 11:36:24;;;;;;;5.90;4.25;;;;;;;9.82;76.40;95607.03;5134970;27;20508;-62
2022/11/24 11:38:52;;;;;;;6.15;4.07;;;;;;;9.84;75.98;95606.97;5134828;27;20047;-62
2022/11/24 11:41:24;;;;;;;5.20;4.70;;;;;;;9.82;76.85;95611.44;5134708;27;20047;-61